sensor_id;sensor_type;location;lat;lon;timestamp;P1;durP1;ratioP1;P2;durP2;ratioP2
9260;SDS011;4667;42.726;23.252;2023-07-13T00:01:03;8.32;;;6.38;;
9260;SDS011;4667;42.726;23.252;2023-07-13T00:03:31;7.10;;;5.45;;
9260;SDS011;4667;42.726;23.252;2023-07-13T00:06:01;6.63;;;5.07;;
9260;SDS011;4667;42.726;23.252;2023-07-13T00:08:30;13.35;;;7.72;;
9260;SDS011;4667;42.726;23.252;2023-07-13T00:10:58;9.15;;;6.40;;
9260;SDS011;4667;42.726;23.252;2023-07-13T00:13:25;8.88;;;5.60;;
9260;SDS011;4667;42.726;23.252;2023-07-13T00:15:52;8.65;;;5.45;;
9260;SDS011;4667;42.726;23.252;2023-07-13T00:18:20;5.90;;;5.30;;
9260;SDS011;4667;42.726;23.252;2023-07-13T00:20:47;5.63;;;5.03;;
9260;SDS011;4667;42.726;23.252;2023-07-13T00:23:15;8.45;;;5.43;;
9260;SDS011;4667;42.726;23.252;2023-07-13T00:25:42;8.70;;;5.55;;
9260;SDS011;4667;42.726;23.252;2023-07-13T00:28:09;7.75;;;5.85;;
9260;SDS011;4667;42.726;23.252;2023-07-13T00:30:36;9.50;;;5.55;;
9260;SDS011;4667;42.726;23.252;2023-07-13T00:33:02;7.93;;;5.78;;
9260;SDS011;4667;42.726;23.252;2023-07-13T00:35:30;9.40;;;5.65;;
9260;SDS011;4667;42.726;23.252;2023-07-13T00:37:57;8.75;;;6.05;;
9260;SDS011;4667;42.726;23.252;2023-07-13T00:40:25;7.65;;;5.60;;
9260;SDS011;4667;42.726;23.252;2023-07-13T00:42:52;7.65;;;5.45;;
9260;SDS011;4667;42.726;23.252;2023-07-13T00:48:24;9.23;;;5.80;;
9260;SDS011;4667;42.726;23.252;2023-07-13T00:50:55;7.90;;;5.88;;
9260;SDS011;4667;42.726;23.252;2023-07-13T00:53:25;6.55;;;5.50;;
9260;SDS011;4667;42.726;23.252;2023-07-13T00:55:54;6.90;;;6.07;;
9260;SDS011;4667;42.726;23.252;2023-07-13T00:58:22;7.75;;;6.43;;
9260;SDS011;4667;42.726;23.252;2023-07-13T01:00:51;11.38;;;6.85;;
9260;SDS011;4667;42.726;23.252;2023-07-13T01:03:18;8.80;;;5.55;;
9260;SDS011;4667;42.726;23.252;2023-07-13T01:05:46;11.75;;;6.55;;
9260;SDS011;4667;42.726;23.252;2023-07-13T01:08:14;7.38;;;6.38;;
9260;SDS011;4667;42.726;23.252;2023-07-13T01:10:41;8.65;;;6.38;;
9260;SDS011;4667;42.726;23.252;2023-07-13T01:13:18;10.80;;;7.20;;
9260;SDS011;4667;42.726;23.252;2023-07-13T01:15:46;7.95;;;6.55;;
9260;SDS011;4667;42.726;23.252;2023-07-13T01:18:14;10.40;;;7.05;;
9260;SDS011;4667;42.726;23.252;2023-07-13T01:20:50;9.40;;;7.40;;
9260;SDS011;4667;42.726;23.252;2023-07-13T01:23:17;10.27;;;7.15;;
9260;SDS011;4667;42.726;23.252;2023-07-13T01:25:44;8.63;;;7.63;;
9260;SDS011;4667;42.726;23.252;2023-07-13T01:28:11;8.68;;;7.05;;
9260;SDS011;4667;42.726;23.252;2023-07-13T01:30:38;7.57;;;6.82;;
9260;SDS011;4667;42.726;23.252;2023-07-13T01:33:06;9.90;;;7.40;;
9260;SDS011;4667;42.726;23.252;2023-07-13T01:35:33;10.13;;;7.25;;
9260;SDS011;4667;42.726;23.252;2023-07-13T01:38:01;9.60;;;7.15;;
9260;SDS011;4667;42.726;23.252;2023-07-13T01:40:28;12.75;;;6.82;;
9260;SDS011;4667;42.726;23.252;2023-07-13T01:42:56;12.75;;;7.75;;
9260;SDS011;4667;42.726;23.252;2023-07-13T01:45:22;10.13;;;7.53;;
9260;SDS011;4667;42.726;23.252;2023-07-13T01:47:49;9.13;;;7.43;;
9260;SDS011;4667;42.726;23.252;2023-07-13T01:50:16;8.98;;;7.18;;
9260;SDS011;4667;42.726;23.252;2023-07-13T01:52:43;8.48;;;7.63;;
9260;SDS011;4667;42.726;23.252;2023-07-13T01:55:11;7.97;;;7.20;;
9260;SDS011;4667;42.726;23.252;2023-07-13T01:57:38;11.07;;;7.40;;
9260;SDS011;4667;42.726;23.252;2023-07-13T02:00:06;7.78;;;6.97;;
9260;SDS011;4667;42.726;23.252;2023-07-13T02:02:35;12.65;;;7.97;;
9260;SDS011;4667;42.726;23.252;2023-07-13T02:05:02;7.68;;;6.97;;
9260;SDS011;4667;42.726;23.252;2023-07-13T02:07:29;8.13;;;7.30;;
9260;SDS011;4667;42.726;23.252;2023-07-13T02:09:56;11.90;;;8.20;;
9260;SDS011;4667;42.726;23.252;2023-07-13T02:12:24;9.70;;;7.20;;
9260;SDS011;4667;42.726;23.252;2023-07-13T02:14:50;9.55;;;8.13;;
9260;SDS011;4667;42.726;23.252;2023-07-13T02:17:17;11.23;;;7.93;;
9260;SDS011;4667;42.726;23.252;2023-07-13T02:19:44;8.60;;;7.80;;
9260;SDS011;4667;42.726;23.252;2023-07-13T02:22:11;10.90;;;7.55;;
9260;SDS011;4667;42.726;23.252;2023-07-13T02:24:38;10.20;;;8.20;;
9260;SDS011;4667;42.726;23.252;2023-07-13T02:27:06;13.98;;;8.10;;
9260;SDS011;4667;42.726;23.252;2023-07-13T02:29:34;9.55;;;7.53;;
9260;SDS011;4667;42.726;23.252;2023-07-13T02:32:01;9.98;;;8.05;;
9260;SDS011;4667;42.726;23.252;2023-07-13T02:34:28;9.32;;;8.15;;
9260;SDS011;4667;42.726;23.252;2023-07-13T02:36:55;8.80;;;7.43;;
9260;SDS011;4667;42.726;23.252;2023-07-13T02:39:21;12.82;;;7.90;;
9260;SDS011;4667;42.726;23.252;2023-07-13T02:41:48;13.23;;;7.47;;
9260;SDS011;4667;42.726;23.252;2023-07-13T02:44:15;8.57;;;7.03;;
9260;SDS011;4667;42.726;23.252;2023-07-13T02:46:43;8.68;;;6.50;;
9260;SDS011;4667;42.726;23.252;2023-07-13T02:49:10;11.73;;;7.65;;
9260;SDS011;4667;42.726;23.252;2023-07-13T02:51:37;9.13;;;7.03;;
9260;SDS011;4667;42.726;23.252;2023-07-13T02:54:04;9.27;;;7.55;;
9260;SDS011;4667;42.726;23.252;2023-07-13T02:56:31;8.88;;;7.65;;
9260;SDS011;4667;42.726;23.252;2023-07-13T02:58:58;11.85;;;7.65;;
9260;SDS011;4667;42.726;23.252;2023-07-13T03:01:25;8.93;;;6.65;;
9260;SDS011;4667;42.726;23.252;2023-07-13T03:03:54;10.50;;;7.40;;
9260;SDS011;4667;42.726;23.252;2023-07-13T03:06:21;8.70;;;7.28;;
9260;SDS011;4667;42.726;23.252;2023-07-13T03:08:48;10.88;;;7.82;;
9260;SDS011;4667;42.726;23.252;2023-07-13T03:11:16;11.18;;;7.53;;
9260;SDS011;4667;42.726;23.252;2023-07-13T03:13:45;9.35;;;7.47;;
9260;SDS011;4667;42.726;23.252;2023-07-13T03:16:12;12.43;;;7.85;;
9260;SDS011;4667;42.726;23.252;2023-07-13T03:18:41;10.63;;;7.78;;
9260;SDS011;4667;42.726;23.252;2023-07-13T03:21:09;8.60;;;7.20;;
9260;SDS011;4667;42.726;23.252;2023-07-13T03:23:36;11.30;;;7.95;;
9260;SDS011;4667;42.726;23.252;2023-07-13T03:26:04;12.40;;;8.20;;
9260;SDS011;4667;42.726;23.252;2023-07-13T03:28:33;14.85;;;7.65;;
9260;SDS011;4667;42.726;23.252;2023-07-13T03:31:00;11.35;;;7.70;;
9260;SDS011;4667;42.726;23.252;2023-07-13T03:33:29;10.85;;;7.25;;
9260;SDS011;4667;42.726;23.252;2023-07-13T03:35:56;15.15;;;9.05;;
9260;SDS011;4667;42.726;23.252;2023-07-13T03:38:26;14.55;;;8.23;;
9260;SDS011;4667;42.726;23.252;2023-07-13T03:40:53;18.25;;;8.38;;
9260;SDS011;4667;42.726;23.252;2023-07-13T03:43:20;13.82;;;7.90;;
9260;SDS011;4667;42.726;23.252;2023-07-13T03:45:47;11.20;;;8.48;;
9260;SDS011;4667;42.726;23.252;2023-07-13T03:48:14;15.45;;;8.38;;
9260;SDS011;4667;42.726;23.252;2023-07-13T03:50:41;10.60;;;8.07;;
9260;SDS011;4667;42.726;23.252;2023-07-13T03:53:08;14.93;;;9.05;;
9260;SDS011;4667;42.726;23.252;2023-07-13T03:55:36;13.77;;;9.15;;
9260;SDS011;4667;42.726;23.252;2023-07-13T04:00:52;15.40;;;9.13;;
9260;SDS011;4667;42.726;23.252;2023-07-13T04:03:19;13.50;;;8.50;;
9260;SDS011;4667;42.726;23.252;2023-07-13T04:05:46;14.65;;;8.60;;
9260;SDS011;4667;42.726;23.252;2023-07-13T04:08:12;14.40;;;8.52;;
9260;SDS011;4667;42.726;23.252;2023-07-13T04:10:42;18.10;;;9.30;;
9260;SDS011;4667;42.726;23.252;2023-07-13T04:13:09;13.82;;;9.38;;
9260;SDS011;4667;42.726;23.252;2023-07-13T04:15:36;16.10;;;10.48;;
9260;SDS011;4667;42.726;23.252;2023-07-13T04:18:02;16.80;;;9.65;;
9260;SDS011;4667;42.726;23.252;2023-07-13T04:20:29;14.90;;;9.25;;
9260;SDS011;4667;42.726;23.252;2023-07-13T04:22:56;14.13;;;9.52;;
9260;SDS011;4667;42.726;23.252;2023-07-13T04:25:23;14.30;;;9.45;;
9260;SDS011;4667;42.726;23.252;2023-07-13T04:27:52;14.65;;;9.40;;
9260;SDS011;4667;42.726;23.252;2023-07-13T04:30:19;12.23;;;8.93;;
9260;SDS011;4667;42.726;23.252;2023-07-13T04:32:46;13.43;;;9.25;;
9260;SDS011;4667;42.726;23.252;2023-07-13T04:35:13;18.05;;;9.32;;
9260;SDS011;4667;42.726;23.252;2023-07-13T04:37:40;12.90;;;8.98;;
9260;SDS011;4667;42.726;23.252;2023-07-13T04:40:07;13.93;;;9.85;;
9260;SDS011;4667;42.726;23.252;2023-07-13T04:42:37;15.88;;;8.15;;
9260;SDS011;4667;42.726;23.252;2023-07-13T04:45:06;14.60;;;9.75;;
9260;SDS011;4667;42.726;23.252;2023-07-13T04:47:33;17.92;;;10.90;;
9260;SDS011;4667;42.726;23.252;2023-07-13T04:50:00;15.25;;;10.38;;
9260;SDS011;4667;42.726;23.252;2023-07-13T04:52:27;13.70;;;10.00;;
9260;SDS011;4667;42.726;23.252;2023-07-13T04:54:54;10.05;;;8.82;;
9260;SDS011;4667;42.726;23.252;2023-07-13T04:57:20;15.80;;;9.10;;
9260;SDS011;4667;42.726;23.252;2023-07-13T04:59:47;16.80;;;10.15;;
9260;SDS011;4667;42.726;23.252;2023-07-13T05:02:15;14.57;;;9.35;;
9260;SDS011;4667;42.726;23.252;2023-07-13T05:04:42;16.20;;;9.18;;
9260;SDS011;4667;42.726;23.252;2023-07-13T05:07:12;16.90;;;9.00;;
9260;SDS011;4667;42.726;23.252;2023-07-13T05:09:38;9.80;;;8.80;;
9260;SDS011;4667;42.726;23.252;2023-07-13T05:12:06;10.82;;;9.30;;
9260;SDS011;4667;42.726;23.252;2023-07-13T05:14:33;10.43;;;8.80;;
9260;SDS011;4667;42.726;23.252;2023-07-13T05:17:00;11.50;;;9.18;;
9260;SDS011;4667;42.726;23.252;2023-07-13T05:19:28;12.65;;;8.50;;
9260;SDS011;4667;42.726;23.252;2023-07-13T05:21:56;11.93;;;9.93;;
9260;SDS011;4667;42.726;23.252;2023-07-13T05:24:23;14.18;;;9.75;;
9260;SDS011;4667;42.726;23.252;2023-07-13T05:26:50;14.50;;;9.32;;
9260;SDS011;4667;42.726;23.252;2023-07-13T05:29:18;12.88;;;9.35;;
9260;SDS011;4667;42.726;23.252;2023-07-13T05:31:45;17.38;;;9.13;;
9260;SDS011;4667;42.726;23.252;2023-07-13T05:34:12;15.63;;;9.20;;
9260;SDS011;4667;42.726;23.252;2023-07-13T05:36:40;15.20;;;9.80;;
9260;SDS011;4667;42.726;23.252;2023-07-13T05:39:07;13.20;;;9.77;;
9260;SDS011;4667;42.726;23.252;2023-07-13T05:41:34;13.80;;;9.63;;
9260;SDS011;4667;42.726;23.252;2023-07-13T05:44:01;15.30;;;9.95;;
9260;SDS011;4667;42.726;23.252;2023-07-13T05:46:28;13.20;;;8.90;;
9260;SDS011;4667;42.726;23.252;2023-07-13T05:48:56;14.55;;;9.63;;
9260;SDS011;4667;42.726;23.252;2023-07-13T05:51:22;14.45;;;9.18;;
9260;SDS011;4667;42.726;23.252;2023-07-13T05:53:50;13.20;;;8.77;;
9260;SDS011;4667;42.726;23.252;2023-07-13T05:56:17;16.35;;;8.75;;
9260;SDS011;4667;42.726;23.252;2023-07-13T05:58:44;15.20;;;9.95;;
9260;SDS011;4667;42.726;23.252;2023-07-13T06:01:12;15.25;;;9.48;;
9260;SDS011;4667;42.726;23.252;2023-07-13T06:03:39;12.50;;;9.32;;
9260;SDS011;4667;42.726;23.252;2023-07-13T06:06:07;10.43;;;9.27;;
9260;SDS011;4667;42.726;23.252;2023-07-13T06:08:35;12.43;;;9.38;;
9260;SDS011;4667;42.726;23.252;2023-07-13T06:11:04;14.60;;;8.95;;
9260;SDS011;4667;42.726;23.252;2023-07-13T06:13:31;15.75;;;10.30;;
9260;SDS011;4667;42.726;23.252;2023-07-13T06:15:58;15.18;;;9.73;;
9260;SDS011;4667;42.726;23.252;2023-07-13T06:18:25;14.35;;;9.02;;
9260;SDS011;4667;42.726;23.252;2023-07-13T06:20:52;14.50;;;9.68;;
9260;SDS011;4667;42.726;23.252;2023-07-13T06:23:18;18.15;;;11.60;;
9260;SDS011;4667;42.726;23.252;2023-07-13T06:25:45;14.00;;;10.98;;
9260;SDS011;4667;42.726;23.252;2023-07-13T06:28:13;19.30;;;10.85;;
9260;SDS011;4667;42.726;23.252;2023-07-13T06:30:40;12.77;;;9.23;;
9260;SDS011;4667;42.726;23.252;2023-07-13T06:33:07;17.90;;;9.43;;
9260;SDS011;4667;42.726;23.252;2023-07-13T06:35:34;14.15;;;9.30;;
9260;SDS011;4667;42.726;23.252;2023-07-13T06:38:01;11.30;;;9.27;;
9260;SDS011;4667;42.726;23.252;2023-07-13T06:40:28;12.98;;;9.85;;
9260;SDS011;4667;42.726;23.252;2023-07-13T06:42:55;15.07;;;10.38;;
9260;SDS011;4667;42.726;23.252;2023-07-13T06:45:23;12.93;;;9.35;;
9260;SDS011;4667;42.726;23.252;2023-07-13T06:47:53;12.43;;;9.07;;
9260;SDS011;4667;42.726;23.252;2023-07-13T06:50:20;17.13;;;9.55;;
9260;SDS011;4667;42.726;23.252;2023-07-13T06:52:46;13.30;;;9.88;;
9260;SDS011;4667;42.726;23.252;2023-07-13T06:55:13;11.43;;;9.20;;
9260;SDS011;4667;42.726;23.252;2023-07-13T06:57:40;15.90;;;10.23;;
9260;SDS011;4667;42.726;23.252;2023-07-13T07:00:07;14.18;;;9.50;;
9260;SDS011;4667;42.726;23.252;2023-07-13T07:02:36;13.52;;;9.80;;
9260;SDS011;4667;42.726;23.252;2023-07-13T07:05:03;14.57;;;9.35;;
9260;SDS011;4667;42.726;23.252;2023-07-13T07:07:30;14.18;;;9.82;;
9260;SDS011;4667;42.726;23.252;2023-07-13T07:09:57;18.95;;;9.38;;
9260;SDS011;4667;42.726;23.252;2023-07-13T07:12:23;16.35;;;9.70;;
9260;SDS011;4667;42.726;23.252;2023-07-13T07:14:50;16.08;;;10.70;;
9260;SDS011;4667;42.726;23.252;2023-07-13T07:17:17;17.80;;;10.57;;
9260;SDS011;4667;42.726;23.252;2023-07-13T07:19:45;13.45;;;9.82;;
9260;SDS011;4667;42.726;23.252;2023-07-13T07:22:12;15.98;;;9.05;;
9260;SDS011;4667;42.726;23.252;2023-07-13T07:24:39;10.43;;;8.98;;
9260;SDS011;4667;42.726;23.252;2023-07-13T07:27:06;13.75;;;8.70;;
9260;SDS011;4667;42.726;23.252;2023-07-13T07:29:33;12.57;;;10.13;;
9260;SDS011;4667;42.726;23.252;2023-07-13T07:31:59;11.88;;;9.70;;
9260;SDS011;4667;42.726;23.252;2023-07-13T07:34:26;14.55;;;9.48;;
9260;SDS011;4667;42.726;23.252;2023-07-13T07:36:54;15.27;;;9.70;;
9260;SDS011;4667;42.726;23.252;2023-07-13T07:39:21;15.90;;;9.48;;
9260;SDS011;4667;42.726;23.252;2023-07-13T07:41:47;10.77;;;9.35;;
9260;SDS011;4667;42.726;23.252;2023-07-13T07:44:14;10.93;;;8.95;;
9260;SDS011;4667;42.726;23.252;2023-07-13T07:46:41;11.80;;;9.13;;
9260;SDS011;4667;42.726;23.252;2023-07-13T07:49:08;15.45;;;9.82;;
9260;SDS011;4667;42.726;23.252;2023-07-13T07:51:35;20.90;;;10.07;;
9260;SDS011;4667;42.726;23.252;2023-07-13T07:54:04;16.02;;;9.75;;
9260;SDS011;4667;42.726;23.252;2023-07-13T07:56:31;13.13;;;9.73;;
9260;SDS011;4667;42.726;23.252;2023-07-13T07:58:58;14.75;;;9.23;;
9260;SDS011;4667;42.726;23.252;2023-07-13T08:01:25;15.77;;;9.52;;
9260;SDS011;4667;42.726;23.252;2023-07-13T08:03:52;15.95;;;8.88;;
9260;SDS011;4667;42.726;23.252;2023-07-13T08:06:18;12.57;;;9.50;;
9260;SDS011;4667;42.726;23.252;2023-07-13T08:08:47;13.57;;;9.38;;
9260;SDS011;4667;42.726;23.252;2023-07-13T08:11:15;14.23;;;9.40;;
9260;SDS011;4667;42.726;23.252;2023-07-13T08:13:42;15.57;;;9.55;;
9260;SDS011;4667;42.726;23.252;2023-07-13T08:16:08;13.05;;;9.25;;
9260;SDS011;4667;42.726;23.252;2023-07-13T08:18:35;12.98;;;9.98;;
9260;SDS011;4667;42.726;23.252;2023-07-13T08:21:05;13.20;;;9.90;;
9260;SDS011;4667;42.726;23.252;2023-07-13T08:23:32;20.58;;;9.43;;
9260;SDS011;4667;42.726;23.252;2023-07-13T08:25:59;17.52;;;8.88;;
9260;SDS011;4667;42.726;23.252;2023-07-13T08:28:31;14.77;;;9.48;;
9260;SDS011;4667;42.726;23.252;2023-07-13T08:31:02;12.68;;;9.50;;
9260;SDS011;4667;42.726;23.252;2023-07-13T08:33:29;16.17;;;9.20;;
9260;SDS011;4667;42.726;23.252;2023-07-13T08:35:56;11.55;;;8.82;;
9260;SDS011;4667;42.726;23.252;2023-07-13T08:38:23;12.02;;;10.35;;
9260;SDS011;4667;42.726;23.252;2023-07-13T08:40:50;15.10;;;9.02;;
9260;SDS011;4667;42.726;23.252;2023-07-13T08:43:20;17.08;;;9.48;;
9260;SDS011;4667;42.726;23.252;2023-07-13T08:45:54;14.70;;;8.90;;
9260;SDS011;4667;42.726;23.252;2023-07-13T08:48:26;14.63;;;9.50;;
9260;SDS011;4667;42.726;23.252;2023-07-13T08:50:57;16.95;;;9.63;;
9260;SDS011;4667;42.726;23.252;2023-07-13T08:53:30;10.95;;;9.20;;
9260;SDS011;4667;42.726;23.252;2023-07-13T08:56:02;15.55;;;8.73;;
9260;SDS011;4667;42.726;23.252;2023-07-13T08:58:34;17.17;;;10.98;;
9260;SDS011;4667;42.726;23.252;2023-07-13T09:01:05;17.02;;;9.95;;
9260;SDS011;4667;42.726;23.252;2023-07-13T09:03:45;15.98;;;10.45;;
9260;SDS011;4667;42.726;23.252;2023-07-13T09:06:17;15.00;;;8.52;;
9260;SDS011;4667;42.726;23.252;2023-07-13T09:08:47;14.00;;;8.90;;
9260;SDS011;4667;42.726;23.252;2023-07-13T09:11:26;9.88;;;8.88;;
9260;SDS011;4667;42.726;23.252;2023-07-13T09:14:04;17.10;;;8.52;;
9260;SDS011;4667;42.726;23.252;2023-07-13T09:16:46;21.92;;;9.88;;
9260;SDS011;4667;42.726;23.252;2023-07-13T09:19:16;13.77;;;8.85;;
9260;SDS011;4667;42.726;23.252;2023-07-13T09:21:48;19.90;;;10.23;;
9260;SDS011;4667;42.726;23.252;2023-07-13T09:24:25;18.52;;;11.23;;
9260;SDS011;4667;42.726;23.252;2023-07-13T09:26:55;16.27;;;10.80;;
9260;SDS011;4667;42.726;23.252;2023-07-13T09:29:28;18.10;;;9.10;;
9260;SDS011;4667;42.726;23.252;2023-07-13T09:32:01;14.52;;;8.48;;
9260;SDS011;4667;42.726;23.252;2023-07-13T09:34:30;16.67;;;8.57;;
9260;SDS011;4667;42.726;23.252;2023-07-13T09:36:59;14.32;;;8.00;;
9260;SDS011;4667;42.726;23.252;2023-07-13T09:39:27;13.02;;;8.57;;
9260;SDS011;4667;42.726;23.252;2023-07-13T09:41:57;16.25;;;8.50;;
9260;SDS011;4667;42.726;23.252;2023-07-13T09:44:28;15.02;;;7.75;;
9260;SDS011;4667;42.726;23.252;2023-07-13T09:46:57;10.85;;;7.70;;
9260;SDS011;4667;42.726;23.252;2023-07-13T09:49:26;13.52;;;7.80;;
9260;SDS011;4667;42.726;23.252;2023-07-13T09:51:57;11.75;;;7.88;;
9260;SDS011;4667;42.726;23.252;2023-07-13T09:54:25;14.13;;;7.70;;
9260;SDS011;4667;42.726;23.252;2023-07-13T09:56:56;9.07;;;5.25;;
9260;SDS011;4667;42.726;23.252;2023-07-13T09:59:26;7.25;;;5.22;;
9260;SDS011;4667;42.726;23.252;2023-07-13T10:01:55;10.65;;;5.20;;
9260;SDS011;4667;42.726;23.252;2023-07-13T10:04:27;8.32;;;5.60;;
9260;SDS011;4667;42.726;23.252;2023-07-13T10:07:04;9.20;;;5.13;;
9260;SDS011;4667;42.726;23.252;2023-07-13T10:09:32;8.18;;;5.28;;
9260;SDS011;4667;42.726;23.252;2023-07-13T10:11:59;5.95;;;5.13;;
9260;SDS011;4667;42.726;23.252;2023-07-13T10:14:26;6.80;;;5.15;;
9260;SDS011;4667;42.726;23.252;2023-07-13T10:16:59;12.32;;;5.13;;
9260;SDS011;4667;42.726;23.252;2023-07-13T10:19:29;10.30;;;4.85;;
9260;SDS011;4667;42.726;23.252;2023-07-13T10:21:59;9.15;;;6.10;;
9260;SDS011;4667;42.726;23.252;2023-07-13T10:24:29;11.25;;;5.75;;
9260;SDS011;4667;42.726;23.252;2023-07-13T10:27:00;12.40;;;5.22;;
9260;SDS011;4667;42.726;23.252;2023-07-13T10:29:32;7.25;;;5.28;;
9260;SDS011;4667;42.726;23.252;2023-07-13T10:32:03;6.63;;;4.68;;
9260;SDS011;4667;42.726;23.252;2023-07-13T10:34:37;6.50;;;5.07;;
9260;SDS011;4667;42.726;23.252;2023-07-13T10:37:05;10.13;;;5.22;;
9260;SDS011;4667;42.726;23.252;2023-07-13T10:39:41;8.60;;;5.25;;
9260;SDS011;4667;42.726;23.252;2023-07-13T10:42:08;7.10;;;5.18;;
9260;SDS011;4667;42.726;23.252;2023-07-13T10:44:41;9.20;;;5.25;;
9260;SDS011;4667;42.726;23.252;2023-07-13T10:47:08;7.90;;;5.25;;
9260;SDS011;4667;42.726;23.252;2023-07-13T10:49:43;8.80;;;5.03;;
9260;SDS011;4667;42.726;23.252;2023-07-13T10:55:32;16.17;;;12.90;;
9260;SDS011;4667;42.726;23.252;2023-07-13T10:58:11;8.65;;;5.40;;
9260;SDS011;4667;42.726;23.252;2023-07-13T11:00:44;8.50;;;4.80;;
9260;SDS011;4667;42.726;23.252;2023-07-13T11:03:16;8.57;;;5.20;;
9260;SDS011;4667;42.726;23.252;2023-07-13T11:05:49;6.57;;;4.95;;
9260;SDS011;4667;42.726;23.252;2023-07-13T11:08:19;6.60;;;4.65;;
9260;SDS011;4667;42.726;23.252;2023-07-13T11:10:52;6.00;;;4.72;;
9260;SDS011;4667;42.726;23.252;2023-07-13T11:16:37;11.68;;;5.35;;
9260;SDS011;4667;42.726;23.252;2023-07-13T11:22:13;11.07;;;5.22;;
9260;SDS011;4667;42.726;23.252;2023-07-13T11:24:52;9.82;;;5.45;;
9260;SDS011;4667;42.726;23.252;2023-07-13T11:30:18;7.10;;;5.65;;
9260;SDS011;4667;42.726;23.252;2023-07-13T11:32:50;9.00;;;5.05;;
9260;SDS011;4667;42.726;23.252;2023-07-13T11:35:31;8.57;;;4.85;;
9260;SDS011;4667;42.726;23.252;2023-07-13T11:38:01;9.48;;;5.65;;
9260;SDS011;4667;42.726;23.252;2023-07-13T11:40:28;9.40;;;5.20;;
9260;SDS011;4667;42.726;23.252;2023-07-13T11:42:59;10.98;;;5.20;;
9260;SDS011;4667;42.726;23.252;2023-07-13T11:45:26;9.93;;;5.55;;
9260;SDS011;4667;42.726;23.252;2023-07-13T11:47:53;11.05;;;5.30;;
9260;SDS011;4667;42.726;23.252;2023-07-13T11:50:22;10.35;;;5.32;;
9260;SDS011;4667;42.726;23.252;2023-07-13T11:52:49;7.43;;;4.97;;
9260;SDS011;4667;42.726;23.252;2023-07-13T11:55:20;7.45;;;4.47;;
9260;SDS011;4667;42.726;23.252;2023-07-13T11:57:50;7.30;;;5.07;;
9260;SDS011;4667;42.726;23.252;2023-07-13T12:00:23;10.38;;;4.80;;
9260;SDS011;4667;42.726;23.252;2023-07-13T12:02:54;9.52;;;4.38;;
9260;SDS011;4667;42.726;23.252;2023-07-13T12:05:22;11.98;;;4.80;;
9260;SDS011;4667;42.726;23.252;2023-07-13T12:07:50;9.63;;;4.93;;
9260;SDS011;4667;42.726;23.252;2023-07-13T12:10:22;13.35;;;5.32;;
9260;SDS011;4667;42.726;23.252;2023-07-13T12:12:52;10.27;;;5.60;;
9260;SDS011;4667;42.726;23.252;2023-07-13T12:15:20;8.38;;;5.18;;
9260;SDS011;4667;42.726;23.252;2023-07-13T12:17:48;8.32;;;5.00;;
9260;SDS011;4667;42.726;23.252;2023-07-13T12:20:20;9.23;;;5.20;;
9260;SDS011;4667;42.726;23.252;2023-07-13T12:22:49;8.93;;;5.47;;
9260;SDS011;4667;42.726;23.252;2023-07-13T12:25:17;10.38;;;5.32;;
9260;SDS011;4667;42.726;23.252;2023-07-13T12:27:48;12.55;;;5.43;;
9260;SDS011;4667;42.726;23.252;2023-07-13T12:30:26;8.60;;;5.00;;
9260;SDS011;4667;42.726;23.252;2023-07-13T12:32:56;9.55;;;5.03;;
9260;SDS011;4667;42.726;23.252;2023-07-13T12:35:25;7.43;;;4.88;;
9260;SDS011;4667;42.726;23.252;2023-07-13T12:37:54;9.50;;;5.38;;
9260;SDS011;4667;42.726;23.252;2023-07-13T12:40:28;11.93;;;5.07;;
9260;SDS011;4667;42.726;23.252;2023-07-13T12:43:00;7.80;;;5.38;;
9260;SDS011;4667;42.726;23.252;2023-07-13T12:45:29;8.95;;;5.00;;
9260;SDS011;4667;42.726;23.252;2023-07-13T12:47:57;9.27;;;5.40;;
9260;SDS011;4667;42.726;23.252;2023-07-13T12:50:29;12.25;;;5.38;;
9260;SDS011;4667;42.726;23.252;2023-07-13T12:53:03;12.20;;;5.72;;
9260;SDS011;4667;42.726;23.252;2023-07-13T12:55:37;10.50;;;5.40;;
9260;SDS011;4667;42.726;23.252;2023-07-13T12:58:09;8.85;;;4.68;;
9260;SDS011;4667;42.726;23.252;2023-07-13T13:00:48;9.02;;;5.22;;
9260;SDS011;4667;42.726;23.252;2023-07-13T13:03:21;9.43;;;5.00;;
9260;SDS011;4667;42.726;23.252;2023-07-13T13:05:58;11.75;;;5.18;;
9260;SDS011;4667;42.726;23.252;2023-07-13T13:08:28;8.27;;;5.03;;
9260;SDS011;4667;42.726;23.252;2023-07-13T13:10:57;8.63;;;5.03;;
9260;SDS011;4667;42.726;23.252;2023-07-13T13:13:23;10.82;;;5.47;;
9260;SDS011;4667;42.726;23.252;2023-07-13T13:15:50;10.32;;;4.85;;
9260;SDS011;4667;42.726;23.252;2023-07-13T13:18:19;9.25;;;5.28;;
9260;SDS011;4667;42.726;23.252;2023-07-13T13:20:47;5.93;;;5.15;;
9260;SDS011;4667;42.726;23.252;2023-07-13T13:23:14;14.52;;;5.32;;
9260;SDS011;4667;42.726;23.252;2023-07-13T13:25:42;11.25;;;5.45;;
9260;SDS011;4667;42.726;23.252;2023-07-13T13:28:16;12.98;;;5.13;;
9260;SDS011;4667;42.726;23.252;2023-07-13T13:30:44;7.55;;;5.32;;
9260;SDS011;4667;42.726;23.252;2023-07-13T13:33:13;9.05;;;5.18;;
9260;SDS011;4667;42.726;23.252;2023-07-13T13:35:42;9.52;;;5.18;;
9260;SDS011;4667;42.726;23.252;2023-07-13T13:38:10;10.13;;;5.57;;
9260;SDS011;4667;42.726;23.252;2023-07-13T13:40:39;9.90;;;5.45;;
9260;SDS011;4667;42.726;23.252;2023-07-13T13:43:15;11.82;;;5.18;;
9260;SDS011;4667;42.726;23.252;2023-07-13T13:45:43;9.38;;;5.50;;
9260;SDS011;4667;42.726;23.252;2023-07-13T13:48:13;8.35;;;4.93;;
9260;SDS011;4667;42.726;23.252;2023-07-13T13:50:42;8.75;;;5.25;;
9260;SDS011;4667;42.726;23.252;2023-07-13T13:53:10;8.13;;;4.95;;
9260;SDS011;4667;42.726;23.252;2023-07-13T13:55:38;10.80;;;4.97;;
9260;SDS011;4667;42.726;23.252;2023-07-13T13:58:06;7.43;;;4.65;;
9260;SDS011;4667;42.726;23.252;2023-07-13T14:00:35;14.50;;;5.50;;
9260;SDS011;4667;42.726;23.252;2023-07-13T14:03:03;10.00;;;5.43;;
9260;SDS011;4667;42.726;23.252;2023-07-13T14:05:32;8.70;;;4.88;;
9260;SDS011;4667;42.726;23.252;2023-07-13T14:07:59;10.20;;;5.43;;
9260;SDS011;4667;42.726;23.252;2023-07-13T14:10:26;11.35;;;5.45;;
9260;SDS011;4667;42.726;23.252;2023-07-13T14:12:53;9.95;;;4.78;;
9260;SDS011;4667;42.726;23.252;2023-07-13T14:15:23;11.40;;;5.88;;
9260;SDS011;4667;42.726;23.252;2023-07-13T14:17:52;13.60;;;5.30;;
9260;SDS011;4667;42.726;23.252;2023-07-13T14:20:20;9.50;;;5.40;;
9260;SDS011;4667;42.726;23.252;2023-07-13T14:22:49;12.27;;;5.45;;
9260;SDS011;4667;42.726;23.252;2023-07-13T14:25:17;11.18;;;4.70;;
9260;SDS011;4667;42.726;23.252;2023-07-13T14:27:45;9.82;;;5.10;;
9260;SDS011;4667;42.726;23.252;2023-07-13T14:30:18;11.15;;;5.40;;
9260;SDS011;4667;42.726;23.252;2023-07-13T14:32:48;10.45;;;5.32;;
9260;SDS011;4667;42.726;23.252;2023-07-13T14:35:18;11.63;;;5.35;;
9260;SDS011;4667;42.726;23.252;2023-07-13T14:37:46;8.70;;;5.30;;
9260;SDS011;4667;42.726;23.252;2023-07-13T14:40:14;12.07;;;6.07;;
9260;SDS011;4667;42.726;23.252;2023-07-13T14:42:43;10.15;;;5.55;;
9260;SDS011;4667;42.726;23.252;2023-07-13T14:45:13;11.43;;;5.60;;
9260;SDS011;4667;42.726;23.252;2023-07-13T14:47:41;8.10;;;5.05;;
9260;SDS011;4667;42.726;23.252;2023-07-13T14:50:13;10.20;;;4.90;;
9260;SDS011;4667;42.726;23.252;2023-07-13T14:52:43;8.48;;;5.07;;
9260;SDS011;4667;42.726;23.252;2023-07-13T14:55:12;7.03;;;5.13;;
9260;SDS011;4667;42.726;23.252;2023-07-13T14:57:40;11.10;;;5.55;;
9260;SDS011;4667;42.726;23.252;2023-07-13T15:00:12;12.13;;;5.50;;
9260;SDS011;4667;42.726;23.252;2023-07-13T15:02:41;10.30;;;4.95;;
9260;SDS011;4667;42.726;23.252;2023-07-13T15:05:15;10.40;;;5.72;;
9260;SDS011;4667;42.726;23.252;2023-07-13T15:07:45;6.95;;;4.90;;
9260;SDS011;4667;42.726;23.252;2023-07-13T15:10:17;7.50;;;5.18;;
9260;SDS011;4667;42.726;23.252;2023-07-13T15:12:46;14.10;;;5.50;;
9260;SDS011;4667;42.726;23.252;2023-07-13T15:15:13;8.40;;;4.60;;
9260;SDS011;4667;42.726;23.252;2023-07-13T15:17:41;9.15;;;5.78;;
9260;SDS011;4667;42.726;23.252;2023-07-13T15:20:16;12.52;;;5.32;;